logo
Search for airport 
image banner adimage banner adimage banner ad
image banner ad

EPDEB - Debno-Dargomysl

Located in , Poland

ICAO - , IATA -

Data provided by Airmate  

General information

Coordinates: N52°43'12" E14°37'45"
Elevation is 170 feet MSL.
 
View others Airports in West Pomerania

Operational data

Special qualification required
Current time UTC:
Current local time:
Weather at : - ( 0 km )
METAR: TJBQ 130250Z 10009KT 10SM SCT019 SCT025 27/24 A3013
View NOTAMs / SUP AIP / TFR affecting this airport [VIEW]
Communications frequencies: [VIEW]

Runways:

RWY identifierQFULength (ft)Width (ft)SurfaceLDA (ft)
04-1°1722164GRASS
22-1°1722164GRASS

Airport contact information

Address: Poland

Satellite view of EPDEB